createdAt,value
2023-05-10T00:02:22.896Z,34.97
2023-05-10T00:04:50.583Z,37.45
2023-05-10T00:07:18.471Z,38.42
2023-05-10T00:09:45.951Z,37.95
2023-05-10T00:12:13.430Z,37.38
2023-05-10T00:14:40.963Z,38.58
2023-05-10T00:17:08.434Z,38.42
2023-05-10T00:19:36.220Z,38.95
2023-05-10T00:22:04.040Z,39.00
2023-05-10T00:24:31.675Z,38.08
2023-05-10T00:26:59.276Z,38.08
2023-05-10T00:29:26.801Z,38.38
2023-05-10T00:31:54.402Z,41.60
2023-05-10T00:34:21.968Z,43.17
2023-05-10T00:36:49.511Z,38.13
2023-05-10T00:39:17.022Z,37.28
2023-05-10T00:41:44.498Z,38.38
2023-05-10T00:44:12.038Z,39.20
2023-05-10T00:46:39.607Z,40.17
2023-05-10T00:49:08.025Z,40.22
2023-05-10T00:51:36.174Z,41.15
2023-05-10T00:54:04.659Z,41.33
2023-05-10T00:56:32.401Z,41.55
2023-05-10T00:58:59.952Z,38.35
2023-05-10T01:01:27.548Z,40.92
2023-05-10T01:03:56.183Z,38.33
2023-05-10T01:06:23.920Z,41.33
2023-05-10T01:08:52.040Z,38.30
2023-05-10T01:11:19.668Z,37.00
2023-05-10T01:13:53.158Z,36.85
2023-05-10T01:16:20.779Z,37.88
2023-05-10T01:18:49.207Z,35.50
2023-05-10T01:21:16.630Z,38.25
2023-05-10T01:24:02.415Z,33.75
2023-05-10T01:26:42.157Z,34.55
2023-05-10T01:32:38.557Z,33.85
2023-05-10T01:35:29.948Z,34.88
2023-05-10T01:38:29.757Z,34.90
2023-05-10T01:41:06.166Z,38.22
2023-05-10T01:43:44.827Z,36.00
2023-05-10T01:46:18.426Z,34.45
2023-05-10T01:48:56.169Z,36.10
2023-05-10T01:51:29.664Z,34.60
2023-05-10T01:54:05.891Z,37.50
2023-05-10T01:56:37.029Z,37.05
2023-05-10T01:59:10.783Z,39.70
2023-05-10T02:01:39.582Z,39.95
2023-05-10T02:04:09.864Z,37.25
2023-05-10T02:06:40.425Z,39.70
2023-05-10T02:09:09.899Z,39.42
2023-05-10T02:11:43.665Z,38.33
2023-05-10T02:14:13.457Z,39.40
2023-05-10T02:16:42.488Z,40.90
2023-05-10T02:19:12.055Z,43.58
2023-05-10T02:21:42.103Z,42.92
2023-05-10T02:24:12.632Z,38.90
2023-05-10T02:26:41.202Z,39.60
2023-05-10T02:29:09.739Z,44.80
2023-05-10T02:31:39.789Z,41.58
2023-05-10T02:34:10.073Z,43.47
2023-05-10T02:36:38.581Z,42.25
2023-05-10T02:39:10.403Z,43.67
2023-05-10T02:41:40.171Z,41.50
2023-05-10T02:44:10.075Z,41.00
2023-05-10T02:46:38.603Z,40.65
2023-05-10T02:49:06.704Z,41.85
2023-05-10T02:51:38.220Z,43.67
2023-05-10T02:54:13.992Z,41.80
2023-05-10T02:56:49.002Z,46.58
2023-05-10T02:59:16.535Z,39.88
2023-05-10T03:01:44.173Z,41.58
2023-05-10T03:04:11.743Z,40.75
2023-05-10T03:06:39.349Z,38.95
2023-05-10T03:09:08.743Z,43.25
2023-05-10T03:11:49.625Z,43.38
2023-05-10T03:14:36.049Z,42.45
2023-05-10T03:17:12.544Z,41.20
2023-05-10T03:19:55.043Z,42.58
2023-05-10T03:22:36.430Z,42.42
2023-05-10T03:25:08.114Z,41.70
2023-05-10T03:27:37.475Z,44.78
2023-05-10T03:30:06.275Z,41.70
2023-05-10T03:32:35.439Z,43.30
2023-05-10T03:35:03.366Z,42.75
2023-05-10T03:37:30.893Z,42.92
2023-05-10T03:39:58.473Z,43.58
2023-05-10T03:42:26.107Z,42.95
2023-05-10T03:44:53.665Z,44.50
2023-05-10T03:47:21.188Z,41.33
2023-05-10T03:49:48.717Z,42.47
2023-05-10T03:52:16.458Z,43.20
2023-05-10T03:54:43.949Z,43.17
2023-05-10T03:57:11.376Z,40.40
2023-05-10T03:59:38.977Z,43.42
2023-05-10T04:02:06.570Z,47.03
2023-05-10T04:04:34.178Z,44.60
2023-05-10T04:07:01.627Z,45.42
2023-05-10T04:09:29.100Z,45.15
2023-05-10T04:11:56.669Z,43.22
2023-05-10T04:14:24.130Z,41.47
2023-05-10T04:16:51.730Z,45.75
2023-05-10T04:19:19.256Z,42.72
2023-05-10T04:21:47.037Z,41.92
2023-05-10T04:24:14.518Z,37.83
2023-05-10T04:26:42.074Z,43.58
2023-05-10T04:29:09.627Z,43.10
2023-05-10T04:31:37.320Z,43.58
2023-05-10T04:34:04.944Z,46.55
2023-05-10T04:36:33.511Z,47.13
2023-05-10T04:39:01.060Z,41.90
2023-05-10T04:41:28.644Z,45.35
2023-05-10T04:43:56.521Z,42.53
2023-05-10T04:46:24.172Z,34.85
2023-05-10T04:48:51.730Z,33.60
2023-05-10T04:51:19.203Z,37.72
2023-05-10T04:53:57.627Z,40.90
2023-05-10T04:56:32.527Z,41.90
2023-05-10T04:59:00.098Z,43.67
2023-05-10T05:01:27.632Z,44.15
2023-05-10T05:03:55.527Z,42.33
2023-05-10T05:06:23.163Z,45.15
2023-05-10T05:08:51.083Z,42.65
2023-05-10T05:11:19.734Z,41.22
2023-05-10T05:13:47.269Z,42.15
2023-05-10T05:16:14.796Z,43.35
2023-05-10T05:18:42.396Z,38.42
2023-05-10T05:21:20.619Z,39.10
2023-05-10T05:23:48.441Z,38.22
2023-05-10T05:26:16.170Z,32.13
2023-05-10T05:28:44.085Z,32.40
2023-05-10T05:31:11.664Z,31.50
2023-05-10T05:33:39.251Z,33.60
2023-05-10T05:36:07.836Z,33.55
2023-05-10T05:38:35.597Z,36.05
2023-05-10T05:41:03.620Z,35.65
2023-05-10T05:43:31.273Z,36.67
2023-05-10T05:45:59.669Z,34.80
2023-05-10T05:48:27.625Z,28.63
2023-05-10T05:50:58.891Z,25.02
2023-05-10T05:53:26.574Z,22.67
2023-05-10T05:55:56.185Z,21.92
2023-05-10T05:58:24.507Z,19.25
2023-05-10T06:00:52.991Z,20.38
2023-05-10T06:03:21.167Z,20.98
2023-05-10T06:05:49.050Z,19.95
2023-05-10T06:08:16.603Z,18.70
2023-05-10T06:10:44.273Z,15.90
2023-05-10T06:13:11.928Z,16.17
2023-05-10T06:15:39.935Z,15.23
2023-05-10T06:18:07.942Z,14.23
2023-05-10T06:20:35.642Z,11.50
2023-05-10T06:23:03.158Z,13.48
2023-05-10T06:25:31.189Z,13.43
2023-05-10T06:27:59.039Z,12.45
2023-05-10T06:30:29.403Z,11.23
2023-05-10T06:32:57.524Z,12.15
2023-05-10T06:35:25.439Z,10.68
2023-05-10T06:37:53.221Z,11.60
2023-05-10T06:40:20.927Z,10.10
2023-05-10T06:42:49.800Z,9.38
2023-05-10T06:45:17.807Z,8.45
2023-05-10T06:47:45.885Z,10.93
2023-05-10T06:50:13.603Z,9.30
2023-05-10T06:52:41.538Z,7.80
2023-05-10T06:55:09.905Z,9.20
2023-05-10T06:57:37.709Z,8.43
2023-05-10T07:00:06.233Z,9.23
2023-05-10T07:02:33.981Z,8.52
2023-05-10T07:05:15.041Z,8.88
2023-05-10T07:07:43.231Z,9.25
2023-05-10T07:10:11.567Z,8.52
2023-05-10T07:12:39.359Z,8.57
2023-05-10T07:15:07.608Z,8.20
2023-05-10T07:17:35.357Z,9.73
2023-05-10T07:20:04.628Z,8.25
2023-05-10T07:22:32.202Z,7.68
2023-05-10T07:24:59.771Z,7.47
2023-05-10T07:27:27.710Z,7.60
2023-05-10T07:29:55.563Z,9.02
2023-05-10T07:32:23.647Z,7.05
2023-05-10T07:34:51.339Z,8.15
2023-05-10T07:37:18.907Z,8.23
2023-05-10T07:39:46.395Z,8.63
2023-05-10T07:42:13.943Z,6.38
2023-05-10T07:44:41.688Z,6.97
2023-05-10T07:47:09.267Z,6.47
2023-05-10T07:49:36.957Z,6.93
2023-05-10T07:52:05.445Z,7.40
2023-05-10T07:54:33.078Z,7.30
2023-05-10T07:57:01.685Z,7.15
2023-05-10T07:59:29.435Z,6.47
2023-05-10T08:01:57.265Z,6.45
2023-05-10T08:04:25.207Z,6.20
2023-05-10T08:06:52.808Z,7.82
2023-05-10T08:09:24.602Z,7.25
2023-05-10T08:11:52.448Z,5.55
2023-05-10T08:14:20.009Z,7.63
2023-05-10T08:16:47.566Z,6.55
2023-05-10T08:19:15.212Z,6.40
2023-05-10T08:21:43.414Z,6.85
2023-05-10T08:24:10.972Z,6.60
2023-05-10T08:26:38.620Z,7.45
2023-05-10T08:29:06.437Z,6.97
2023-05-10T08:31:34.126Z,6.45
2023-05-10T08:34:02.307Z,7.88
2023-05-10T08:36:29.911Z,7.20
2023-05-10T08:38:58.373Z,6.43
2023-05-10T08:41:27.247Z,7.15
2023-05-10T08:43:56.054Z,6.90
2023-05-10T08:46:24.857Z,6.55
2023-05-10T08:48:53.537Z,7.30
2023-05-10T08:51:27.562Z,7.40
2023-05-10T08:53:55.434Z,6.20
2023-05-10T08:56:23.130Z,6.90
2023-05-10T08:58:50.926Z,6.70
2023-05-10T09:01:20.340Z,5.90
2023-05-10T09:03:49.252Z,4.38
2023-05-10T09:06:17.115Z,6.35
2023-05-10T09:08:45.515Z,4.45
2023-05-10T09:11:14.628Z,4.95
2023-05-10T09:13:42.466Z,4.43
2023-05-10T09:16:21.143Z,3.42
2023-05-10T09:18:50.498Z,5.75
2023-05-10T09:21:18.386Z,4.72
2023-05-10T09:23:48.627Z,4.05
2023-05-10T09:26:17.054Z,4.45
2023-05-10T09:28:58.097Z,3.35
2023-05-10T09:31:26.865Z,2.90
2023-05-10T09:33:56.002Z,3.83
2023-05-10T09:36:23.564Z,2.95
2023-05-10T09:38:53.824Z,3.08
2023-05-10T09:41:23.430Z,2.90
2023-05-10T09:43:52.452Z,2.80
2023-05-10T09:46:20.078Z,2.80
2023-05-10T09:48:49.080Z,2.80
2023-05-10T09:51:24.239Z,2.47
2023-05-10T09:54:15.747Z,2.03
2023-05-10T09:56:43.587Z,2.20
2023-05-10T09:59:14.546Z,2.58
2023-05-10T10:01:43.089Z,1.92
2023-05-10T10:04:11.827Z,1.77
2023-05-10T10:06:42.793Z,1.90
2023-05-10T10:09:11.162Z,1.58
2023-05-10T10:11:40.763Z,2.33
2023-05-10T10:14:08.319Z,2.83
2023-05-10T10:16:36.023Z,2.92
2023-05-10T10:19:04.134Z,3.20
2023-05-10T10:21:32.043Z,3.47
2023-05-10T10:23:59.682Z,3.22
2023-05-10T10:26:27.609Z,3.28
2023-05-10T10:29:34.221Z,3.30
2023-05-10T10:32:26.066Z,3.10
2023-05-10T10:34:54.047Z,3.85
2023-05-10T10:37:21.663Z,4.72
2023-05-10T10:39:51.515Z,3.63
2023-05-10T10:42:50.826Z,3.65
2023-05-10T10:45:18.706Z,3.83
2023-05-10T10:47:47.023Z,4.22
2023-05-10T10:50:14.869Z,2.88
2023-05-10T10:52:42.941Z,3.63
2023-05-10T10:55:12.052Z,3.47
2023-05-10T10:57:42.634Z,3.53
2023-05-10T11:00:24.037Z,2.47
2023-05-10T11:02:54.181Z,2.50
2023-05-10T11:05:28.033Z,2.70
2023-05-10T11:07:55.967Z,3.22
2023-05-10T11:10:25.065Z,2.58
2023-05-10T11:13:01.889Z,2.70
2023-05-10T11:15:34.496Z,1.83
2023-05-10T11:18:18.081Z,1.52
2023-05-10T11:20:47.651Z,2.03
2023-05-10T11:23:18.680Z,1.90
2023-05-10T11:25:47.731Z,1.80
2023-05-10T11:28:15.282Z,1.70
2023-05-10T11:30:45.291Z,1.83
2023-05-10T11:33:18.311Z,2.03
2023-05-10T11:35:45.934Z,1.90
2023-05-10T11:38:15.400Z,1.95
2023-05-10T11:40:43.561Z,1.42
2023-05-10T11:43:12.372Z,1.50
2023-05-10T11:45:40.302Z,2.20
2023-05-10T11:48:08.140Z,4.72
2023-05-10T11:50:35.884Z,2.22
2023-05-10T11:53:03.426Z,1.77
2023-05-10T11:55:32.295Z,1.23
2023-05-10T11:58:04.187Z,1.25
2023-05-10T12:03:00.413Z,1.30
2023-05-10T12:05:28.269Z,1.60
2023-05-10T12:08:13.095Z,2.20
2023-05-10T12:10:40.857Z,2.83
2023-05-10T12:13:13.979Z,2.65
2023-05-10T12:15:41.908Z,2.65
2023-05-10T12:18:13.642Z,3.53
2023-05-10T12:20:41.956Z,4.53
2023-05-10T12:23:11.703Z,5.43
2023-05-10T12:25:40.102Z,5.40
2023-05-10T12:28:09.797Z,6.10
2023-05-10T12:30:38.390Z,7.40
2023-05-10T12:33:17.617Z,7.82
2023-05-10T12:35:53.356Z,7.63
2023-05-10T12:38:34.491Z,9.45
2023-05-10T12:41:03.812Z,9.98
2023-05-10T12:43:32.017Z,11.00
2023-05-10T12:45:59.738Z,10.27
2023-05-10T12:48:29.587Z,10.30
2023-05-10T12:50:57.096Z,9.80
2023-05-10T12:53:24.832Z,9.43
2023-05-10T12:55:52.368Z,11.40
2023-05-10T12:58:34.330Z,11.70
2023-05-10T13:01:03.169Z,11.40
2023-05-10T13:03:31.568Z,11.52
2023-05-10T13:05:59.232Z,12.70
2023-05-10T13:08:26.738Z,13.18
2023-05-10T13:10:54.441Z,13.88
2023-05-10T13:13:21.942Z,12.20
2023-05-10T13:15:49.575Z,13.50
2023-05-10T13:18:17.141Z,13.75
2023-05-10T13:20:45.236Z,14.60
2023-05-10T13:23:12.843Z,13.05
2023-05-10T13:25:40.417Z,12.75
2023-05-10T13:28:07.947Z,11.05
2023-05-10T13:30:35.432Z,10.75
2023-05-10T13:33:03.015Z,11.73
2023-05-10T13:35:30.603Z,11.38
2023-05-10T13:37:58.741Z,9.50
2023-05-10T13:40:26.246Z,10.68
2023-05-10T13:42:53.977Z,9.25
2023-05-10T13:45:22.644Z,10.60
2023-05-10T13:47:50.598Z,10.45
2023-05-10T13:50:19.045Z,10.45
2023-05-10T13:52:46.574Z,9.55
2023-05-10T13:55:15.605Z,9.43
2023-05-10T13:57:44.120Z,8.00
2023-05-10T14:00:12.210Z,8.90
2023-05-10T14:02:39.760Z,9.25
2023-05-10T14:05:07.762Z,9.63
2023-05-10T14:07:35.344Z,7.53
2023-05-10T14:10:03.179Z,7.65
2023-05-10T14:12:30.674Z,7.50
2023-05-10T14:14:59.075Z,6.88
2023-05-10T14:17:26.604Z,7.25
2023-05-10T14:19:54.602Z,6.55
2023-05-10T14:22:22.155Z,6.65
2023-05-10T14:24:49.677Z,6.28
2023-05-10T14:27:17.220Z,6.05
2023-05-10T14:29:44.733Z,6.90
2023-05-10T14:32:12.262Z,6.00
2023-05-10T14:34:39.760Z,6.60
2023-05-10T14:37:07.418Z,6.47
2023-05-10T14:39:35.018Z,5.32
2023-05-10T14:42:03.522Z,5.55
2023-05-10T14:44:31.594Z,7.43
2023-05-10T14:46:59.238Z,5.07
2023-05-10T14:49:27.151Z,6.32
2023-05-10T14:51:55.226Z,5.78
2023-05-10T14:54:22.703Z,6.25
2023-05-10T14:56:50.985Z,6.10
2023-05-10T14:59:18.753Z,5.68
2023-05-10T15:01:46.807Z,5.35
2023-05-10T15:04:17.130Z,4.95
2023-05-10T15:06:45.293Z,4.80
2023-05-10T15:09:12.894Z,4.10
2023-05-10T15:11:40.436Z,4.95
2023-05-10T15:14:07.973Z,5.93
2023-05-10T15:16:36.310Z,5.30
2023-05-10T15:19:04.171Z,5.43
2023-05-10T15:21:35.993Z,4.75
2023-05-10T15:24:03.501Z,4.63
2023-05-10T15:26:31.019Z,6.03
2023-05-10T15:28:58.652Z,5.57
2023-05-10T15:31:26.289Z,5.10
2023-05-10T15:33:54.393Z,4.93
2023-05-10T15:36:22.017Z,6.07
2023-05-10T15:38:49.655Z,5.95
2023-05-10T15:41:17.248Z,6.18
2023-05-10T15:43:44.829Z,6.68
2023-05-10T15:46:12.465Z,6.95
2023-05-10T15:48:40.424Z,7.75
2023-05-10T15:51:08.041Z,8.07
2023-05-10T15:53:36.052Z,6.40
2023-05-10T15:56:04.168Z,6.97
2023-05-10T15:58:31.711Z,7.10
2023-05-10T16:00:59.327Z,8.40
2023-05-10T16:03:26.946Z,9.45
2023-05-10T16:05:54.827Z,10.55
2023-05-10T16:08:22.386Z,9.27
2023-05-10T16:10:51.228Z,9.40
2023-05-10T16:13:18.846Z,9.27
2023-05-10T16:15:46.728Z,8.50
2023-05-10T16:18:14.335Z,9.27
2023-05-10T16:20:42.028Z,9.75
2023-05-10T16:23:09.879Z,7.65
2023-05-10T16:25:37.594Z,9.05
2023-05-10T16:28:05.258Z,7.72
2023-05-10T16:30:32.932Z,7.47
2023-05-10T16:33:02.444Z,9.57
2023-05-10T16:35:30.531Z,7.78
2023-05-10T16:37:58.353Z,8.30
2023-05-10T16:40:25.959Z,7.85
2023-05-10T16:42:53.518Z,8.68
2023-05-10T16:45:21.262Z,7.88
2023-05-10T16:47:48.876Z,7.97
2023-05-10T16:50:16.719Z,6.60
2023-05-10T16:52:44.607Z,7.63
2023-05-10T16:55:12.340Z,8.88
2023-05-10T16:57:39.940Z,8.20
2023-05-10T17:00:08.584Z,9.30
2023-05-10T17:02:36.629Z,8.98
2023-05-10T17:05:04.880Z,7.53
2023-05-10T17:07:32.525Z,7.68
2023-05-10T17:10:00.164Z,7.40
2023-05-10T17:12:28.101Z,7.60
2023-05-10T17:14:55.760Z,8.73
2023-05-10T17:17:23.615Z,8.05
2023-05-10T17:19:51.321Z,7.68
2023-05-10T17:22:18.987Z,7.47
2023-05-10T17:24:47.154Z,8.48
2023-05-10T17:27:14.913Z,7.35
2023-05-10T17:29:42.410Z,7.60
2023-05-10T17:32:10.185Z,6.65
2023-05-10T17:34:38.234Z,7.85
2023-05-10T17:37:06.141Z,7.15
2023-05-10T17:39:35.093Z,6.63
2023-05-10T17:42:02.681Z,7.28
2023-05-10T17:44:30.343Z,7.63
2023-05-10T17:46:57.901Z,8.02
2023-05-10T17:49:25.491Z,7.30
2023-05-10T17:51:53.139Z,7.53
2023-05-10T17:54:20.683Z,7.18
2023-05-10T17:56:48.800Z,7.88
2023-05-10T17:59:16.320Z,8.35
2023-05-10T18:01:43.941Z,7.18
2023-05-10T18:04:11.609Z,8.05
2023-05-10T18:06:39.556Z,8.38
2023-05-10T18:09:07.472Z,7.75
2023-05-10T18:11:38.009Z,7.00
2023-05-10T18:14:05.650Z,6.88
2023-05-10T18:16:33.495Z,8.35
2023-05-10T18:19:01.144Z,5.88
2023-05-10T18:21:28.986Z,6.13
2023-05-10T18:23:57.151Z,5.78
2023-05-10T18:26:24.607Z,6.75
2023-05-10T18:28:52.081Z,7.18
2023-05-10T18:31:19.729Z,6.75
2023-05-10T18:33:47.244Z,8.18
2023-05-10T18:36:15.353Z,9.85
2023-05-10T18:38:43.297Z,8.90
2023-05-10T18:41:12.424Z,8.65
2023-05-10T18:43:39.987Z,10.63
2023-05-10T18:46:07.783Z,9.32
2023-05-10T18:48:35.510Z,10.20
2023-05-10T18:51:03.231Z,9.65
2023-05-10T18:53:31.230Z,9.32
2023-05-10T18:55:59.544Z,9.63
2023-05-10T18:58:30.495Z,9.40
2023-05-10T19:00:58.693Z,9.13
2023-05-10T19:03:26.144Z,8.43
2023-05-10T19:05:53.679Z,8.25
2023-05-10T19:08:21.213Z,11.10
2023-05-10T19:10:48.705Z,10.25
2023-05-10T19:13:16.243Z,10.27
2023-05-10T19:15:43.843Z,10.63
2023-05-10T19:18:11.380Z,11.20
2023-05-10T19:20:40.868Z,9.10
2023-05-10T19:23:10.476Z,9.45
2023-05-10T19:25:39.419Z,9.77
2023-05-10T19:28:07.054Z,9.57
2023-05-10T19:30:34.566Z,9.73
2023-05-10T19:33:04.026Z,10.63
2023-05-10T19:35:32.001Z,11.52
2023-05-10T19:37:59.476Z,11.10
2023-05-10T19:40:27.074Z,11.73
2023-05-10T19:42:56.802Z,11.30
2023-05-10T19:45:24.282Z,11.75
2023-05-10T19:47:51.971Z,12.13
2023-05-10T19:50:19.913Z,12.57
2023-05-10T19:52:48.100Z,10.60
2023-05-10T19:55:26.012Z,13.00
2023-05-10T19:57:53.993Z,12.35
2023-05-10T20:00:21.570Z,12.10
2023-05-10T20:02:49.712Z,12.50
2023-05-10T20:05:17.504Z,11.95
2023-05-10T20:07:45.469Z,12.07
2023-05-10T20:10:13.067Z,11.82
2023-05-10T20:12:40.708Z,12.30
2023-05-10T20:15:08.819Z,11.23
2023-05-10T20:17:37.312Z,11.45
2023-05-10T20:20:05.060Z,12.55
2023-05-10T20:22:32.573Z,12.00
2023-05-10T20:25:00.071Z,13.45
2023-05-10T20:27:27.771Z,11.07
2023-05-10T20:29:55.508Z,12.27
2023-05-10T20:32:23.366Z,12.25
2023-05-10T20:34:50.890Z,13.45
2023-05-10T20:37:18.677Z,12.02
2023-05-10T20:39:47.893Z,12.23
2023-05-10T20:42:16.674Z,12.70
2023-05-10T20:44:44.259Z,12.98
2023-05-10T20:47:11.860Z,12.48
2023-05-10T20:49:39.398Z,11.93
2023-05-10T20:52:07.326Z,12.45
2023-05-10T20:54:34.799Z,13.98
2023-05-10T20:57:02.749Z,13.07
2023-05-10T20:59:30.225Z,13.38
2023-05-10T21:01:58.258Z,11.80
2023-05-10T21:04:26.424Z,12.75
2023-05-10T21:06:55.605Z,10.93
2023-05-10T21:09:23.164Z,12.93
2023-05-10T21:11:51.627Z,11.93
2023-05-10T21:14:19.169Z,14.50
2023-05-10T21:16:46.685Z,13.05
2023-05-10T21:19:14.223Z,13.32
2023-05-10T21:21:41.778Z,13.25
2023-05-10T21:24:09.275Z,12.02
2023-05-10T21:26:37.342Z,12.20
2023-05-10T21:29:05.363Z,12.75
2023-05-10T21:31:33.011Z,12.20
2023-05-10T21:34:00.917Z,13.27
2023-05-10T21:36:28.445Z,13.13
2023-05-10T21:38:55.974Z,12.35
2023-05-10T21:41:23.534Z,13.23
2023-05-10T21:43:51.167Z,13.90
2023-05-10T21:46:18.792Z,14.10
2023-05-10T21:48:46.414Z,15.07
2023-05-10T21:51:13.984Z,13.75
2023-05-10T21:53:41.528Z,13.40
2023-05-10T21:56:09.160Z,12.23
2023-05-10T21:58:36.641Z,14.93
2023-05-10T22:01:04.268Z,14.07
2023-05-10T22:03:31.842Z,13.75
2023-05-10T22:05:59.395Z,12.55
2023-05-10T22:08:26.960Z,14.75
2023-05-10T22:10:54.478Z,12.95
2023-05-10T22:13:21.974Z,13.32
2023-05-10T22:15:49.618Z,13.82
2023-05-10T22:18:17.218Z,14.52
2023-05-10T22:20:48.330Z,12.60
2023-05-10T22:23:16.088Z,13.18
2023-05-10T22:25:43.609Z,12.45
2023-05-10T22:28:11.719Z,13.45
2023-05-10T22:30:39.357Z,13.07
2023-05-10T22:33:06.901Z,14.63
2023-05-10T22:35:34.473Z,13.88
2023-05-10T22:38:02.166Z,13.18
2023-05-10T22:40:29.734Z,16.05
2023-05-10T22:42:57.273Z,13.02
2023-05-10T22:45:24.818Z,14.57
2023-05-10T22:47:52.427Z,13.77
2023-05-10T22:50:20.528Z,14.20
2023-05-10T22:52:48.308Z,15.40
2023-05-10T22:55:15.975Z,15.77
2023-05-10T22:57:43.624Z,16.63
2023-05-10T23:00:11.667Z,14.82
2023-05-10T23:02:39.294Z,15.73
2023-05-10T23:05:07.676Z,14.68
2023-05-10T23:07:35.388Z,14.82
2023-05-10T23:10:02.928Z,13.60
2023-05-10T23:12:31.286Z,13.63
2023-05-10T23:14:58.910Z,14.60
2023-05-10T23:17:26.455Z,13.55
2023-05-10T23:19:53.962Z,13.15
2023-05-10T23:22:21.454Z,15.52
2023-05-10T23:24:49.063Z,15.27
2023-05-10T23:27:16.540Z,15.38
2023-05-10T23:29:44.024Z,15.10
2023-05-10T23:32:11.528Z,15.75
2023-05-10T23:34:39.118Z,15.02
2023-05-10T23:37:06.777Z,15.15
2023-05-10T23:39:34.785Z,17.10
2023-05-10T23:42:03.298Z,13.77
2023-05-10T23:44:30.816Z,16.13
2023-05-10T23:46:58.386Z,16.15
2023-05-10T23:49:25.911Z,13.65
2023-05-10T23:51:53.438Z,15.93
2023-05-10T23:54:21.565Z,13.90
2023-05-10T23:56:50.161Z,15.85
2023-05-10T23:59:17.682Z,14.50
